Lynemouth, United Kingdom
Current Conditions -  °F | °C
As of 9:50 PM on Monday 22 Dec 2014 (Local Time) from EGNT Reporting Station
Scattered Clouds Scattered Clouds  
Wind Chill: 43°   Ceiling: Unl
Heat Index: 48°   Visibility: 5mi
Dew Point: 46°   Wind: 12mph
Humidity: 93%   Direction: 260°W
Pressure: 29.68"   Gusts: NA
Location:  55.21°N, 1.54°W
Report Text: EGNT 222150Z 26010KT 220V290 8000 SCT025 09/08 Q1005
Loading
Personal Weather Stations






























Interactive Weather Map New forecast layout! Learn more

10-Day Weather Forecast

Advertisements
Track Severe Weather on mobile